Tiempo atmosférico en la estación meteorológica de Ciudad Real, Ciudad Real (628 m.)



Fecha
DESCASC
Temp. máxima en grados centígrados (hora)
DESCASC
Temp. mínima en grados centígrados (hora)
DESCASC
Temp. media en grados centígrados
DESCASC
Racha de viento máxima en m/sg (hora)
DESCASC
Velocidad máxima media en intervalos de 10 minutos(hora)
DESCASC
Precipitaciones diarias en mm
DESCASC
Precipitaciones de 00:00 a 06:00 en mm
DESCASC
Precipitaciones de 06:00 a 12:00 en mm
DESCASC
Precipitaciones de 12:00 a 18:00 en mm
DESCASC
Precipitaciones de 18:00 a 24:00 en mm
DESCASC
22-04-2019 18.5 (16:20) 8.7 (07:40) 13.6 6.94 (16:20) 3.89 (19:30) 0.6 0.6 0 0 0
21-04-2019 13.5 (15:10) 8.5 (05:30) 11 10.28 (11:50) 5 (14:10) 0.2 0 0 0.2 0
20-04-2019 11.5 (13:30) 8.7 (00:00) 10.1 10.56 (10:30) 5.83 (17:50) 21.6 10 1.6 9.6 0.4
19-04-2019 14.3 (13:40) 8.6 (22:50) 11.5 10.28 (19:00) 5.83 (17:50) 0.6 0.6 0 0 0
18-04-2019 16.4 (00:00) 9.9 (00:00) 13.1 8.33 (19:10) 3.89 (14:50) 11.6 2 6.2 3.2 0.2
17-04-2019 26.6 (15:30) 9 (00:00) 17.8 9.72 (19:40) 5.28 (19:40) 0 0 0 0 0
16-04-2019 24.7 (18:00) 7.8 (00:00) 16.3 6.39 (13:20) 3.33 (16:40) 0 0 0 0 0
15-04-2019 26.7 (17:20) 10.5 (00:00) 18.6 12.5 (13:10) 6.39 (19:10) 0 0 0 0 0
14-04-2019 23 (16:10) 10.5 (00:00) 16.8 8.89 (16:40) 4.44 (16:20) 0 0 0 0 0
13-04-2019 22.8 (16:30) 5.4 (00:00) 14.1 7.22 (13:30) 3.33 (16:40) 0 0 0 0 0
12-04-2019 19.5 (17:50) 3.3 (00:00) 11.4 6.67 (16:40) 3.33 (16:40) 0 0 0 0 0
11-04-2019 17.5 (17:30) 3.2 (00:00) 10.4 7.5 (18:50) 3.61 (17:50) 0.2 0 0.2 0 0
10-04-2019 16.4 (15:40) 6.1 (00:00) 11.2 12.22 (18:10) 5.83 (18:00) 0.8 0 0 0 0.8
09-04-2019 14.1 (17:10) 7 (00:00) 10.6 11.94 (16:00) 5.56 (14:30) 2.8 0 0.6 1.8 0.4
08-04-2019 17 (16:20) 9.8 (00:00) 13.4 9.72 (16:00) 4.72 (13:20) 3 1.8 1.2 0 0
07-04-2019 12.9 (15:20) 5.7 (00:00) 9.3 9.17 (17:10) 4.72 (00:50) 2.4 2 0 0 0.4
06-04-2019 11.9 (15:50) 5.1 (00:00) 8.5 16.67 (13:00) 6.39 (13:10) 6.4 0.6 0.8 5 0
05-04-2019 11.3 (17:10) 5.4 (00:00) 8.4 14.17 (18:30) 5.83 (18:30) 4 0 1.2 2.2 0.6
04-04-2019 17.4 (17:20) 2.5 (00:00) 9.9 7.22 (19:10) 3.61 (11:20) 0 0 0 0 0
03-04-2019 19.1 (15:20) 8 (00:00) 13.6 13.33 (16:10) 6.11 (16:20) 0 0 0 0 0
02-04-2019 19.7 (16:00) 7.4 (00:00) 13.6 8.06 (16:50) 4.17 (16:40) 5.2 0 0 4.8 0.4
01-04-2019 18.3 (17:40) 8.9 (00:00) 13.6 8.89 (19:50) 4.44 (19:50) 7.8 0 0 4.4 3.4
31-03-2019 13.7 (17:00) 7.8 (00:00) 10.8 7.22 (06:40) 4.17 (19:10) 0 0 0 0 0
30-03-2019 21 (15:40) 5.7 (00:00) 13.3 8.89 (15:00) 4.17 (12:00) 0.4 0 0 0 0.4
29-03-2019 20.1 (16:30) 2 (00:00) 11.1 6.39 (13:40) 3.61 (15:30) 0 0 0 0 0
28-03-2019 21 (15:00) 1.3 (00:00) 11.1 11.67 (19:00) 6.11 (18:20) 0 0 0 0 0
27-03-2019 18.9 (15:20) 3.9 (00:00) 11.4 12.22 (17:50) 6.11 (15:40) 0 0 0 0 0
26-03-2019 22.6 (15:30) 5.7 (00:00) 14.2 15.83 (17:00) 7.78 (18:00) 0 0 0 0 0
25-03-2019 22.6 (15:40) 3.9 (00:00) 13.3 10.56 (13:40) 5.83 (14:00) 0 0 0 0 0

Gráficas

Temp. máximas Temp. mínimas Temp. medias Precipitaciones Rachas de viento máximas Velocidades máximas media en intervalos de 10 minutos

Datos horarios

Fecha y hora oficial Temperatura (ºC) Velocidad del viento (km/h) Dirección del viento Racha (km/h) Dirección de racha Precipitación (mm) Presión (hPa) Tendencia (hPa) Humedad (%)
2019-04-23 23:00:00 6.9 10 Sudoeste 25 Sudoeste 0 933 2.7 75
2019-04-23 22:00:00 7.8 15 Oeste 36 Oeste 0 932.3 2.4 75
2019-04-23 21:00:00 8.4 8 Sudoeste 27 Sudoeste 0 931.1 1.7 81
2019-04-23 20:00:00 7.9 10 Sudoeste 39 Oeste 1 930.3 1.1 80
2019-04-23 19:00:00 9.4 9 Noroeste 44 Noroeste 0 929.9 1.5 73
2019-04-23 18:00:00 10.7 17 Oeste 37 Oeste 0.2 929.4 1.1 66
2019-04-23 17:00:00 9.9 15 Sudoeste 53 Oeste 1 929.2 0.4 77
2019-04-23 16:00:00 14.1 17 Sudoeste 39 Oeste 0 928.4 -0.7 43
2019-04-23 15:00:00 13 18 Sudoeste 40 Sudoeste 0 928.3 -0.5 47
2019-04-23 14:00:00 11.9 18 Oeste 34 Oeste 0 928.8 0.9 55
2019-04-23 13:00:00 10.3 14 Sudoeste 32 Oeste 0 929.1 2.6 66
2019-04-23 12:00:00 8.4 14 Oeste 36 Oeste 0 928.8 1.7 78
2019-04-23 11:00:00 9.3 12 Oeste 22 Sudoeste 0 927.9 1.2 88
2019-04-23 10:00:00 9 4 Sudoeste 24 Sudoeste 1.8 926.5 0.3 92
2019-04-23 09:00:00 9.3 6 Oeste 25 Sudoeste 1.4 927.1 0.4 91
2019-04-23 08:00:00 10.4 12 Sudoeste 28 Sudoeste 0.4 926.7 -0.4 88
2019-04-23 07:00:00 11 11 Sudoeste 28 Sudoeste 0 926.2 -1.2 78
2019-04-23 06:00:00 11.3 10 Sudoeste 28 Sudoeste 0 926.7 -1.2 78
2019-04-23 05:00:00 11.8 10 Sudoeste 22 Sur 0 927.1 -1.2 81
2019-04-23 04:00:00 12.3 11 Sudoeste 24 Sudoeste 0 927.4 -1.1 77
2019-04-23 03:00:00 12.9 11 Sudoeste 20 Sudoeste 0 927.9 -0.7 68
2019-04-23 02:00:00 13.2 10 Sudoeste 20 Sudoeste 0 928.3 -0.4 66
2019-04-23 01:00:00 13.2 6 Sudoeste 22 Sudoeste 0 928.5 -0.2 67
2019-04-23 00:00:00 13.1 8 Sudoeste 17 Sur 0 928.6 0 72
2019-04-22 23:00:00 13 6 Sur 18 Sur 0 928.7 0.1 74
2019-04-22 22:00:00 14 8 Sur 19 Sur 0 928.7 -0.2 69
2019-04-22 21:00:00 15.7 9 Sur 22 Sudoeste 0 928.6 -0.4 59
2019-04-22 20:00:00 17.1 9 Oeste 25 Oeste 0 928.6 -0.9 50
2019-04-22 19:00:00 17.4 8 Oeste 19 Sudoeste 0 928.9 -1.4 47
2019-04-22 18:00:00 17.7 10 Oeste 22 Noroeste 0 929 -2 47
2019-04-22 17:00:00 17.8 8 Noroeste 25 Noroeste 0 929.5 -2.1 46
2019-04-22 16:00:00 17.9 7 Oeste 22 Oeste 0 930.3 -1.9 47
2019-04-22 15:00:00 17.1 10 Oeste 25 Noroeste 0 931 -1.8 50
2019-04-22 14:00:00 16.3 9 Oeste 24 Noroeste 0 931.6 -1.3 52
2019-04-22 13:00:00 14.9 9 Sudoeste 21 Oeste 0 932.2 -0.8 57
2019-04-22 12:00:00 13.6 8 Oeste 17 Oeste 0 932.8 0 67
2019-04-22 11:00:00 13.2 8 Oeste 15 Oeste 0 932.9 0.2 73
2019-04-22 10:00:00 11.4 4 Sudoeste 9 Sudeste 0 933 0.5 82
2019-04-22 09:00:00 10.2 3 Sur 6 Sur 0 932.8 -0.3 87
2019-04-22 08:00:00 8.9 0 Calma 8 Oeste 0 932.7 -1 94
2019-04-22 07:00:00 8.9 4 Noroeste 8 Oeste 0 932.5 -1.7 92
2019-04-22 06:00:00 8.9 2 Norte 5 Noroeste 0 933.1 -1.9 94
2019-04-22 05:00:00 8.9 4 Noroeste 9 Noroeste 0.2 933.7 -1.7 93
2019-04-22 04:00:00 9 5 Noroeste 9 Noroeste 0.2 934.2 -1.6 94
2019-04-22 03:00:00 9.2 0 Calma 8 Noroeste 0.2 935 -1.4 93
2019-04-22 02:00:00 9.2 2 Norte 5 Norte 0 935.4 -1.3 91
2019-04-22 01:00:00 9.3 3 Nordeste 6 Este 0 935.8 -0.7 91
2019-04-22 00:00:00 9.6 5 Este 12 Este 0 936.4 0.1 88
2019-04-21 23:00:00 9.8 6 Este 12 Este 0 936.7 0.2 84
2019-04-21 22:00:00 10.1 9 Este 15 Este 0 936.5 -0.1 82
2019-04-21 21:00:00 10.5 6 Este 18 Este 0 936.3 -0.5 80
2019-04-21 20:00:00 11 9 Este 22 Nordeste 0 936.5 -0.7 78
2019-04-21 19:00:00 11.3 13 Este 24 Este 0 936.6 -0.7 76
2019-04-21 18:00:00 11.3 9 Este 22 Este 0.2 936.8 -0.7 83
2019-04-21 17:00:00 12 13 Este 25 Este 0 937.2 -0.8 71
2019-04-21 16:00:00 13.2 15 Nordeste 26 Este 0 937.3 -1.2 60
2019-04-21 15:00:00 13.4 16 Este 32 Nordeste 0 937.5 -1 63
2019-04-21 14:00:00 12.9 16 Nordeste 37 Este 0 938 -0.9 61
2019-04-21 13:00:00 12.2 17 Nordeste 34 Nordeste 0 938.5 -0.6 65
2019-04-21 12:00:00 11.8 15 Nordeste 37 Nordeste 0 938.5 -0.6 66
2019-04-21 11:00:00 11 11 Nordeste 28 Nordeste 0 938.9 -0.4 71
2019-04-21 10:00:00 9.6 10 Nordeste 23 Norte 0 939.1 -0.5 83
2019-04-21 09:00:00 8.8 7 Nordeste 19 Nordeste 0 939.1 -1 85
2019-04-21 08:00:00 8.5 8 Norte 19 Norte 0 939.3 -1.3 87
2019-04-21 07:00:00 8.6 8 Nordeste 19 Este 0 939.6 -1.3 83
2019-04-21 06:00:00 8.5 10 Nordeste 21 Nordeste 0 940.1 -1.8 82
2019-04-21 05:00:00 8.6 9 Nordeste 27 Nordeste 0 940.6 -2.1 84
2019-04-21 04:00:00 9.2 14 Nordeste 28 Este 0 940.9 -2.5 79
2019-04-21 03:00:00 9.3 11 Nordeste 23 Nordeste 0 941.9 -1.7 81
2019-04-21 02:00:00 9.3 10 Nordeste 24 Nordeste 0 942.7 -1.3 82
2019-04-21 01:00:00 9.5 11 Nordeste 30 Nordeste 0 943.4 -0.3 80
2019-04-21 00:00:00 9.6 10 Nordeste 29 Este 0 943.6 0.1 81
2019-04-20 23:00:00 9.3 13 Nordeste 27 Nordeste 0 944 0.5 85
2019-04-20 22:00:00 9.2 6 Nordeste 21 Nordeste 0 943.7 0.3 92
2019-04-20 21:00:00 9.6 11 Nordeste 24 Nordeste 0 943.5 0.1 92
2019-04-20 20:00:00 9.8 8 Nordeste 24 Este 0 943.5 0.2 93
2019-04-20 19:00:00 9.7 16 Este 36 Nordeste 0.4 943.4 0.2 90
2019-04-20 18:00:00 9.7 18 Nordeste 38 Nordeste 2.2 943.4 0.2 92
2019-04-20 17:00:00 9.8 13 Nordeste 29 Este 3.6 943.3 0.2 93
2019-04-20 16:00:00 10 11 Nordeste 36 Este 2.6 943.2 0.5 91
2019-04-20 15:00:00 11 15 Este 34 Nordeste 0.2 943.2 0.4 84
2019-04-20 14:00:00 11 17 Nordeste 33 Este 0.6 943.1 0.7 84
2019-04-20 13:00:00 11.1 8 Nordeste 19 Nordeste 0.4 942.7 0.6 89
2019-04-20 12:00:00 10.8 11 Nordeste 32 Nordeste 0.6 942.8 0.7 85
2019-04-20 11:00:00 11 11 Nordeste 38 Nordeste 0.2 942.4 0.5 82
2019-04-20 10:00:00 10.1 7 Nordeste 17 Nordeste 0 942.1 1 89
2019-04-20 09:00:00 9.5 6 Norte 16 Nordeste 0.2 942.1 -0.2 92
2019-04-20 08:00:00 9.3 4 Nordeste 17 Norte 0 941.9 -1 93
2019-04-20 07:00:00 9.2 8 Norte 17 Noroeste 0.6 941.1 -2.5 95
2019-04-20 06:00:00 8.9 7 Norte 14 Norte 1.6 942.3 -2 97
2019-04-20 05:00:00 8.7 6 Norte 12 Norte 3.4 942.9 -1.8 97
2019-04-20 04:00:00 8.8 5 Nordeste 24 Nordeste 4.2 943.6 -1.5 96
2019-04-20 03:00:00 8.9 9 Nordeste 21 Nordeste 0.8 944.3 -1 95
2019-04-20 02:00:00 8.8 10 Nordeste 28 Este 0 944.7 -0.9 93
2019-04-20 01:00:00 8.7 10 Este 26 Nordeste 0 945.1 0 91
2019-04-20 00:00:00 8.7 14 Este 28 Este 0 945.3 1.1 90
2019-04-19 23:00:00 8.6 14 Este 27 Este 0 945.6 2.1 91
2019-04-19 22:00:00 8.9 14 Este 29 Este 0 945.1 1.8 89
2019-04-19 21:00:00 9.3 15 Este 29 Este 0 944.2 1.1 85
2019-04-19 20:00:00 9.3 13 Este 30 Nordeste 0 943.5 0.5 87
2019-04-19 19:00:00 9.6 17 Nordeste 37 Nordeste 0 943.3 0.7 88
2019-04-19 18:00:00 10.4 17 Nordeste 34 Este 0 943.1 0.5 86
2019-04-19 17:00:00 12.2 16 Este 35 Nordeste 0 943 0.7 74
2019-04-19 16:00:00 13.4 15 Este 30 Este 0 942.6 -0.3 74
2019-04-19 15:00:00 14.1 9 Nordeste 19 Nordeste 0 942.6 -0.4 67
2019-04-19 14:00:00 14.2 12 Este 21 Este 0 942.3 -0.4 69
2019-04-19 13:00:00 13.7 13 Este 22 Este 0 942.9 0.6 70
2019-04-19 12:00:00 12.9 10 Este 18 Nordeste 0 943 0.8 76
2019-04-19 11:00:00 12.3 3 Sudeste 9 Este 0 942.7 1.2 79
2019-04-19 10:00:00 10.7 3 Sur 8 Sudeste 0 942.3 1.3 85
2019-04-19 09:00:00 9.8 4 Sur 9 Sur 0 942.2 1.4 91
2019-04-19 08:00:00 9.4 4 Sudoeste 10 Sur 0 941.5 0.7 92
2019-04-19 07:00:00 9.4 6 Sudoeste 13 Sudoeste 0 941 0.2 93
2019-04-19 06:00:00 9.5 4 Sudoeste 10 Sudoeste 0 940.8 -0.2 93
2019-04-19 05:00:00 9.5 5 Sudoeste 15 Sudoeste 0.6 940.8 -0.3 93
2019-04-19 04:00:00 9.7 8 Sudoeste 17 Sudoeste 0 940.8 -0.1 91
2019-04-19 03:00:00 9.8 6 Sudoeste 14 Oeste 0 941 0.2 90
2019-04-19 02:00:00 9.9 4 Sudoeste 13 Sur 0 941.1 0.4 92
2019-04-19 01:00:00 9.7 5 Sudoeste 14 Sudoeste 0 940.9 0.7 92
2019-04-19 00:00:00 9.9 7 Sudoeste 12 Sudoeste 0 940.8 1.3 90
2019-04-18 23:00:00 10.3 6 Sudoeste 13 Sudoeste 0.2 940.7 1.5 88
2019-04-18 22:00:00 10.4 5 Oeste 15 Oeste 0 940.2 1.2 86
2019-04-18 21:00:00 10.5 7 Oeste 21 Sudoeste 0 939.5 0.8 86
2019-04-18 20:00:00 11 10 Oeste 30 Oeste 0 939.2 0.6 78
2019-04-18 19:00:00 13.3 8 Oeste 22 Noroeste 0 939 -0.4 71
2019-04-18 18:00:00 13.1 4 Oeste 13 Oeste 0 938.7 -1.1 73
2019-04-18 17:00:00 13.3 5 Este 17 Sudeste 0 938.6 -1.2 70
2019-04-18 16:00:00 12.6 13 Este 22 Sudeste 0 939.4 -1 78
2019-04-18 15:00:00 11.6 13 Este 23 Este 0 939.8 -0.8 86
2019-04-18 14:00:00 11 13 Sudeste 23 Sudeste 0.2 939.8 -1 90
2019-04-18 13:00:00 10.8 3 Oeste 17 Noroeste 3 940.4 -0.6 92
2019-04-18 12:00:00 10.9 6 Noroeste 12 Noroeste 1 940.6 0.1 92
2019-04-18 11:00:00 10.7 3 Noroeste 6 Norte 1.2 940.8 0.9 91
2019-04-18 10:00:00 10.7 2 Norte 10 Noroeste 1.8 941 1.6 89
2019-04-18 09:00:00 11.3 4 Noroeste 10 Oeste 2 940.5 0.7 93
2019-04-18 08:00:00 11.3 0 Calma 7 Norte 0 939.9 0 94
2019-04-18 07:00:00 11.4 2 Este 7 Oeste 0.2 939.4 -1.1 92
2019-04-18 06:00:00 11.4 3 Noroeste 12 Noroeste 0.2 939.8 -1.2 92
2019-04-18 05:00:00 11.7 7 Noroeste 14 Noroeste 1.4 939.9 -1.9 89
2019-04-18 04:00:00 12.5 10 Oeste 22 Oeste 0.2 940.5 -0.8 87
2019-04-18 03:00:00 13.1 3 Noroeste 11 Noroeste 0.2 941 -0.5 86
2019-04-18 02:00:00 14.1 6 Oeste 23 Sudoeste 0 941.8 0.8 79
2019-04-18 01:00:00 15.2 12 Sudoeste 22 Oeste 0 941.3 1.4 69
2019-04-18 00:00:00 16.4 9 Sudoeste 27 Sudoeste 0 941.5 2.6 61
2019-04-17 23:00:00 17 12 Oeste 28 Oeste 0 941 2.8 58
2019-04-17 22:00:00 17.9 11 Oeste 21 Sudoeste 0 939.9 2.5 53
2019-04-17 21:00:00 18.9 11 Sudoeste 31 Sudoeste 0 938.9 2 47
2019-04-17 20:00:00 19.6 16 Sudoeste 35 Sudoeste 0 938.2 1.9 46
2019-04-17 19:00:00 20.8 12 Oeste 34 Oeste 0 937.4 0.8 42
2019-04-17 18:00:00 22.4 10 Oeste 34 Sudoeste 0 936.9 -0.3 35
2019-04-17 17:00:00 24.6 8 Oeste 23 Sudoeste 0 936.3 -1.6 33
2019-04-17 16:00:00 26.2 11 Sudoeste 30 Sur 0 936.6 -2.6 23
2019-04-17 15:00:00 26.3 13 Sur 24 Sur 0 937.2 -2.7 21
2019-04-17 14:00:00 25.2 10 Este 20 Nordeste 0 937.9 -2.2 32
2019-04-17 13:00:00 21.9 8 Este 18 Este 0 939.2 -0.7 42
2019-04-17 12:00:00 18.9 10 Este 20 Este 0 939.9 -0.3 49
2019-04-17 11:00:00 15.8 9 Este 18 Este 0 940.1 -0.2 62
2019-04-17 10:00:00 13.4 10 Nordeste 19 Este 0 939.9 -0.5 71
2019-04-17 09:00:00 10.5 12 Este 24 Este 0 940.2 -0.5 84
2019-04-17 08:00:00 9 10 Nordeste 18 Este 0 940.3 -0.8 90
2019-04-17 07:00:00 9.2 9 Este 17 Nordeste 0 940.4 -0.9 89
2019-04-17 06:00:00 9.6 8 Nordeste 14 Nordeste 0 940.7 -1.2 87
2019-04-17 05:00:00 10.2 7 Nordeste 15 Este 0 941.1 -1 85
2019-04-17 04:00:00 10.6 7 Nordeste 13 Nordeste 0 941.3 -0.7 77
2019-04-17 03:00:00 11.6 6 Nordeste 12 Nordeste 0 941.9 0.1 61
2019-04-17 02:00:00 12.8 2 Sudeste 4 Este 0 942.1 0.4 51
2019-04-17 01:00:00 14.5 2 Norte 8 Sur 0 942 0.5 46
2019-04-17 00:00:00 16 5 Sur 10 Sur 0 941.8 0.5 42
2019-04-16 23:00:00 17.4 4 Sur 10 Sur 0 941.7 0.6 35
2019-04-16 22:00:00 19.4 6 Sur 12 Sur 0 941.5 0.2 28
2019-04-16 21:00:00 21.3 7 Sur 18 Sur 0 941.3 -0.4 23
2019-04-16 20:00:00 23 8 Sur 17 Nordeste 0 941.1 -1.6 17
2019-04-16 19:00:00 23.8 8 Este 18 Este 0 941.3 -2.4 24
2019-04-16 18:00:00 24.7 6 Este 19 Sudeste 0 941.7 -2.9 25
2019-04-16 17:00:00 24.2 9 Este 22 Este 0 942.7 -2.6 24
2019-04-16 16:00:00 23.2 7 Sudeste 22 Sur 0 943.7 -2.2 28
2019-04-16 15:00:00 22.5 7 Sudeste 21 Sudeste 0 944.6 -1.7 26
2019-04-16 14:00:00 21.2 10 Este 23 Este 0 945.3 -1.1 37
2019-04-16 13:00:00 20 12 Este 21 Este 0 945.9 -0.4 39
2019-04-16 12:00:00 18 10 Este 21 Este 0 946.3 0.2 45
2019-04-16 11:00:00 16.8 5 Sudeste 15 Este 0 946.4 0.7 50
2019-04-16 10:00:00 13.4 5 Este 9 Sudeste 0 946.3 0.6 71
2019-04-16 09:00:00 8.7 3 Este 5 Nordeste 0 946.1 0.4 88
2019-04-16 08:00:00 8 2 Este 7 Sur 0 945.7 -0.3 91
2019-04-16 07:00:00 7.8 3 Sudeste 6 Sudeste 0 945.7 -0.3 88
2019-04-16 06:00:00 8.4 0 Calma 6 Nordeste 0 945.7 -0.2 83
2019-04-16 05:00:00 10.5 3 Oeste 9 Sudoeste 0 946 0.5 80
2019-04-16 04:00:00 11.3 3 Oeste 10 Sudoeste 0 946 0.2 77
2019-04-16 03:00:00 11.7 5 Sudoeste 11 Sudoeste 0 945.9 0.8 77
2019-04-16 02:00:00 12.1 3 Sudoeste 11 Sudoeste 0 945.5 0.9 69
2019-04-16 01:00:00 13 8 Oeste 14 Sudoeste 0 945.8 2.3 66
2019-04-16 00:00:00 14 8 Oeste 18 Oeste 0 945.1 2.9 63
2019-04-15 23:00:00 15.4 9 Oeste 22 Oeste 0 944.6 3.3 59
2019-04-15 22:00:00 16.5 13 Oeste 35 Noroeste 0 943.5 3.4 59
2019-04-15 21:00:00 18.7 15 Noroeste 36 Oeste 0 942.2 3.1 46
2019-04-15 20:00:00 20.9 14 Oeste 45 Noroeste 0 941.3 2.3 40
2019-04-15 19:00:00 23 19 Noroeste 41 Noroeste 0 940.1 0.2 39
2019-04-15 18:00:00 25.5 16 Sudoeste 39 Sudoeste 0 939.1 -1.1 25
2019-04-15 17:00:00 26.2 18 Sudoeste 42 Oeste 0 939 -1.6 23
2019-04-15 16:00:00 25.9 19 Sudoeste 45 Oeste 0 939.9 -1.3 25
2019-04-15 15:00:00 25.6 16 Sudoeste 36 Oeste 0 940.2 -1.6 27
2019-04-15 14:00:00 25 12 Sudoeste 45 Sur 0 940.6 -1.5 27
2019-04-15 13:00:00 23.3 10 Oeste 24 Oeste 0 941.2 -0.3 42
2019-04-15 12:00:00 20.7 3 Noroeste 9 Noroeste 0 941.8 0.2 56
2019-04-15 11:00:00 17.6 4 Oeste 7 Oeste 0 942.1 0.4 66
2019-04-15 10:00:00 15 2 Norte 8 Este 0 941.5 -0.5 76
2019-04-15 09:00:00 10.9 3 Nordeste 8 Nordeste 0 941.6 -0.4 90
2019-04-15 08:00:00 10.7 4 Nordeste 6 Nordeste 0 941.7 -0.9 89
2019-04-15 07:00:00 11.3 3 Noroeste 5 Este 0 942 -0.8 87
2019-04-15 06:00:00 11.8 2 Este 5 Sudeste 0 942 -1.3 84
2019-04-15 05:00:00 11.9 0 Calma 4 Norte 0 942.6 -1.3 83
2019-04-15 04:00:00 12.8 2 Este 6 Este 0 942.8 -1.1 79
2019-04-15 03:00:00 14.2 0 Calma 8 Sudoeste 0 943.3 -0.9 73
2019-04-15 02:00:00 14.9 5 Sudoeste 8 Sudoeste 0 943.9 -0.5 72
2019-04-15 01:00:00 15.7 0 Calma 5 Sur 0 943.9 -0.4 67
2019-04-15 00:00:00 16.9 3 Sudoeste 9 Oeste 0 944.2 0.2 61
2019-04-14 23:00:00 17.5 5 Noroeste 12 Noroeste 0 944.4 0.7 59
2019-04-14 22:00:00 18.1 5 Oeste 15 Sudoeste 0 944.3 0.6 56
2019-04-14 21:00:00 19.3 7 Oeste 18 Noroeste 0 944 0.3 52
2019-04-14 20:00:00 20.7 10 Oeste 26 Noroeste 0 943.7 -0.5 47
2019-04-14 19:00:00 21.8 10 Oeste 25 Oeste 0 943.7 -1.1 45
2019-04-14 18:00:00 22.7 13 Oeste 30 Oeste 0 943.7 -1.6 44
2019-04-14 17:00:00 22.9 12 Oeste 32 Sudoeste 0 944.2 -1.2 43
2019-04-14 16:00:00 22.5 10 Oeste 30 Oeste 0 944.8 -1 44
2019-04-14 15:00:00 22 10 Oeste 31 Noroeste 0 945.3 -1 48
2019-04-14 14:00:00 21.4 10 Oeste 24 Oeste 0 945.4 -1 53
2019-04-14 13:00:00 20.7 9 Oeste 20 Noroeste 0 945.8 -0.4 53
2019-04-14 12:00:00 18.4 9 Oeste 20 Noroeste 0 946.3 0.2 62
2019-04-14 11:00:00 16.8 8 Oeste 16 Sudoeste 0 946.4 0.7 66
2019-04-14 10:00:00 14 7 Sudoeste 14 Oeste 0 946.2 0.6 71
2019-04-14 09:00:00 11.6 4 Sudoeste 11 Sudoeste 0 946.1 0.2 74
2019-04-14 08:00:00 10.5 5 Sudoeste 12 Oeste 0 945.7 -0.3 70
2019-04-14 07:00:00 10.9 5 Sudoeste 12 Sudoeste 0 945.6 -0.6 63
2019-04-14 06:00:00 11.6 7 Oeste 13 Oeste 0 945.9 -0.2 59
2019-04-14 05:00:00 11.8 8 Oeste 14 Sudoeste 0 946 -0.6 56
2019-04-14 04:00:00 12.1 9 Sudoeste 17 Sudoeste 0 946.2 -0.6 53
2019-04-14 03:00:00 13 8 Oeste 13 Oeste 0 946.1 -0.7 48
2019-04-14 02:00:00 13.5 7 Sudoeste 12 Sudoeste 0 946.6 -0.3 44
2019-04-14 01:00:00 14.3 5 Oeste 11 Sudoeste 0 946.8 0.3 42
2019-04-14 00:00:00 14.9 4 Oeste 16 Oeste 0 946.8 1 40
2019-04-13 23:00:00 15.7 8 Oeste 16 Oeste 0 946.9 1.5 40
2019-04-13 22:00:00 16.9 6 Oeste 18 Oeste 0 946.5 1.5 37
2019-04-13 21:00:00 18.3 11 Oeste 20 Oeste 0 945.8 0.8 36
2019-04-13 20:00:00 20 9 Oeste 22 Noroeste 0 945.4 0.3 31
2019-04-13 19:00:00 21.4 11 Oeste 23 Oeste 0 945 -0.6 28
2019-04-13 18:00:00 22.3 10 Oeste 21 Noroeste 0 945 -0.9 28
2019-04-13 17:00:00 22.6 8 Oeste 26 Noroeste 0 945.1 -1.3 27
2019-04-13 16:00:00 22 9 Oeste 25 Oeste 0 945.6 -1.2 28
2019-04-13 15:00:00 21.3 7 Oeste 19 Sudoeste 0 945.9 -1.4 31
2019-04-13 14:00:00 20.4 6 Oeste 26 Noroeste 0 946.4 -0.8 32
2019-04-13 13:00:00 20 9 Oeste 20 Noroeste 0 946.8 -0.3 30
2019-04-13 12:00:00 18.7 4 Sudoeste 12 Sudeste 0 947.3 0.4 33
2019-04-13 11:00:00 15.7 4 Oeste 9 Oeste 0 947.2 0.9 44
2019-04-13 10:00:00 11.8 4 Sudeste 6 Este 0 947.1 1.1 55
2019-04-13 09:00:00 7 2 Este 5 Oeste 0 946.9 1.3 76
2019-04-13 08:00:00 5.5 3 Sudoeste 8 Sudoeste 0 946.3 0.7 80
2019-04-13 07:00:00 5.7 6 Noroeste 10 Noroeste 0 946 0.4 78
2019-04-13 06:00:00 5.8 2 Oeste 5 Oeste 0 945.6 -0.4 79
2019-04-13 05:00:00 6.7 0 Calma 6 Sur 0 945.6 -0.6 75
2019-04-13 04:00:00 7.5 0 Calma 3 Sur 0 945.6 -0.4 73
2019-04-13 03:00:00 8.8 0 Calma 4 Sur 0 946 0.2 66
2019-04-13 02:00:00 10.1 3 Este 11 Nordeste 0 946.2 0.8 59
2019-04-13 01:00:00 11.6 4 Oeste 9 Oeste 0 946 1.2 52
2019-04-13 00:00:00 12.4 3 Noroeste 9 Sudoeste 0 945.8 1.6 50
2019-04-12 23:00:00 13.7 5 Oeste 13 Oeste 0 945.4 1.4 44
2019-04-12 22:00:00 15 7 Oeste 15 Sudoeste 0 944.8 0.8 39
2019-04-12 21:00:00 16.6 5 Noroeste 13 Oeste 0 944.2 0.1 37
2019-04-12 20:00:00 17.7 6 Noroeste 14 Noroeste 0 944 -0.3 31
2019-04-12 19:00:00 18.5 9 Noroeste 19 Noroeste 0 944 -0.9 26
2019-04-12 18:00:00 19.4 7 Norte 24 Norte 0 944.1 -1.6 27
2019-04-12 17:00:00 19.3 10 Noroeste 24 Norte 0 944.3 -1.8 27
2019-04-12 16:00:00 19.3 7 Sudoeste 17 Oeste 0 944.9 -1.6 30
2019-04-12 15:00:00 18 9 Oeste 23 Noroeste 0 945.7 -1.2 34
2019-04-12 14:00:00 16.9 4 Sudoeste 13 Noroeste 0 946.1 -0.7 38
2019-04-12 13:00:00 15.8 4 Sudoeste 16 Este 0 946.5 -0.3 39
2019-04-12 12:00:00 14.6 9 Sudeste 15 Sudeste 0 946.9 0.3 43
2019-04-12 11:00:00 12.6 6 Este 12 Sudeste 0 946.8 0.4 51
2019-04-12 10:00:00 9.6 3 Este 5 Nordeste 0 946.8 0.8 57
2019-04-12 09:00:00 5.1 0 Calma 3 Nordeste 0 946.6 0.7 80
2019-04-12 08:00:00 3.3 0 Calma 3 Este 0 946.4 0.6 86
2019-04-12 07:00:00 3.8 0 Calma 0 Calma 0 946 0.2 84
2019-04-12 06:00:00 4.3 0 Calma 2 Noroeste 0 945.9 -0.2 83
2019-04-12 05:00:00 5.2 2 Sur 3 Sur 0 945.8 -0.5 79
2019-04-12 04:00:00 5.9 0 Calma 5 Sudeste 0 945.8 -0.3 74
2019-04-12 03:00:00 6.9 3 Sudeste 7 Norte 0 946.1 0.2 67
2019-04-12 02:00:00 8.5 4 Norte 11 Norte 0 946.3 0.5 59
2019-04-12 01:00:00 8.4 4 Norte 7 Noroeste 0 946.1 0.6 68
2019-04-12 00:00:00 10.3 4 Noroeste 9 Oeste 0 945.9 1.2 59
2019-04-11 23:00:00 11.2 5 Oeste 14 Sudoeste 0 945.8 1.3 56
2019-04-11 22:00:00 12.3 6 Sudoeste 11 Oeste 0 945.5 1.1 50
2019-04-11 21:00:00 13.3 6 Sudoeste 21 Sudoeste 0 944.7 0.4 44
2019-04-11 20:00:00 14.9 8 Oeste 17 Oeste 0 944.5 0.1 40
2019-04-11 19:00:00 15.5 8 Oeste 27 Oeste 0 944.4 -0.4 39
2019-04-11 18:00:00 16.8 9 Norte 23 Noroeste 0 944.3 -0.8 31
2019-04-11 17:00:00 16.6 6 Norte 19 Noroeste 0 944.4 -1.1 37
2019-04-11 16:00:00 17.3 5 Noroeste 21 Noroeste 0 944.8 -1.3 35
2019-04-11 15:00:00 17.1 6 Oeste 21 Noroeste 0 945.1 -1.3 36
2019-04-11 14:00:00 15.9 6 Oeste 17 Oeste 0 945.5 -0.8 46
2019-04-11 13:00:00 14.9 8 Nordeste 22 Noroeste 0 946.1 -0.2 47
2019-04-11 12:00:00 13.8 3 Nordeste 17 Nordeste 0.2 946.4 0.3 51
2019-04-11 11:00:00 11.8 6 Nordeste 14 Norte 0 946.3 0.7 60
2019-04-11 10:00:00 9 3 Este 6 Este 0 946.3 1.3 74
2019-04-11 09:00:00 4.8 0 Calma 6 Oeste 0 946.1 1.2 98
2019-04-11 08:00:00 3.2 0 Calma 4 Norte 0 945.6 0.9 96
2019-04-11 07:00:00 3.6 3 Oeste 5 Oeste 0 945 0.7 93
2019-04-11 06:00:00 4.5 3 Oeste 8 Oeste 0 944.9 0.4 93
2019-04-11 05:00:00 5.3 4 Oeste 8 Oeste 0 944.7 0.1 92
2019-04-11 04:00:00 5.9 2 Oeste 9 Sudoeste 0 944.3 -0.1 91
2019-04-11 03:00:00 5.7 3 Oeste 6 Sudoeste 0 944.5 0.3 91
2019-04-11 02:00:00 6.7 2 Oeste 7 Sudoeste 0 944.6 0.5 89
2019-04-11 01:00:00 7.5 3 Oeste 9 Oeste 0 944.4 0.6 84
2019-04-11 00:00:00 8.3 3 Oeste 14 Oeste 0 944.2 1.1 83
2019-04-10 23:00:00 8.7 4 Oeste 10 Sudoeste 0 944.1 1.2 81
2019-04-10 22:00:00 9.1 7 Sudoeste 21 Oeste 0 943.8 1.6 84
2019-04-10 21:00:00 9.6 9 Noroeste 17 Noroeste 0.2 943.1 1.2 79
2019-04-10 20:00:00 9.4 3 Nordeste 15 Nordeste 0.2 942.9 2.2 84
2019-04-10 19:00:00 9.3 9 Este 44 Nordeste 0.4 942.2 0.1 87
2019-04-10 18:00:00 11.6 21 Nordeste 42 Noroeste 0 941.9 0 66
2019-04-10 17:00:00 15 16 Oeste 30 Oeste 0 940.7 -1.9 49
2019-04-10 16:00:00 12.8 18 Noroeste 42 Noroeste 0 942.1 -0.9 64
2019-04-10 15:00:00 15.7 11 Oeste 28 Oeste 0 941.9 -1.2 44
2019-04-10 14:00:00 14.3 13 Oeste 29 Noroeste 0 942.6 -0.7 51
2019-04-10 13:00:00 13.4 10 Oeste 28 Noroeste 0 943 -0.3 54
2019-04-10 12:00:00 12.2 12 Noroeste 27 Noroeste 0 943.1 -0.1 60
2019-04-10 11:00:00 9.8 11 Noroeste 28 Oeste 0 943.3 0.6 68
2019-04-10 10:00:00 8.3 10 Noroeste 21 Noroeste 0 943.3 0.7 79
2019-04-10 09:00:00 7.2 9 Oeste 19 Oeste 0 943.2 0.6 86
2019-04-10 08:00:00 6.6 6 Oeste 19 Oeste 0 942.7 -0.1 87
2019-04-10 07:00:00 6.6 5 Oeste 20 Oeste 0 942.6 0.1 88
2019-04-10 06:00:00 6.1 7 Oeste 19 Oeste 0 942.6 -0.1 89
2019-04-10 05:00:00 6.6 4 Oeste 17 Oeste 0 942.8 0 88
2019-04-10 04:00:00 6.6 5 Sur 17 Sudoeste 0 942.5 -0.3 86
2019-04-10 03:00:00 7.4 9 Oeste 22 Oeste 0 942.7 -0.2 83
2019-04-10 02:00:00 7.9 10 Oeste 21 Oeste 0 942.8 0.1 81
2019-04-10 01:00:00 8.6 8 Oeste 18 Oeste 0 942.8 0.5 78
2019-04-10 00:00:00 9.3 8 Oeste 22 Oeste 0 942.9 0.9 76
2019-04-09 23:00:00 9.4 12 Sudoeste 19 Sudoeste 0.2 942.7 1.4 75
2019-04-09 22:00:00 9.8 5 Sudoeste 24 Noroeste 0 942.3 1.5 75
2019-04-09 21:00:00 11.6 14 Noroeste 26 Oeste 0 942 0.7 64
2019-04-09 20:00:00 12.8 17 Noroeste 33 Oeste 0 941.3 0 62
2019-04-09 19:00:00 13.6 16 Oeste 38 Noroeste 0.2 940.8 -0.9 53
2019-04-09 18:00:00 11.7 17 Noroeste 43 Oeste 0 941.3 -0.5 67
2019-04-09 17:00:00 13.8 14 Oeste 42 Oeste 0.2 941.3 -1.3 57
2019-04-09 16:00:00 11.7 14 Oeste 43 Oeste 0 941.7 -1.4 79
2019-04-09 15:00:00 12.5 16 Oeste 40 Oeste 0.2 941.8 -1.1 60
2019-04-09 14:00:00 10.4 14 Oeste 32 Sudoeste 0.6 942.6 -0.9 79
2019-04-09 13:00:00 8.9 10 Noroeste 31 Noroeste 0.8 943.1 -0.4 87
2019-04-09 12:00:00 11.6 14 Oeste 28 Sudoeste 0 942.9 -0.6 65
2019-04-09 11:00:00 8.6 9 Oeste 29 Sudoeste 0.4 943.5 0.3 85
2019-04-09 10:00:00 9.7 12 Sudoeste 27 Oeste 0 943.5 0.6 78
2019-04-09 09:00:00 7.6 6 Sudoeste 15 Sudoeste 0.2 943.5 0.4 91
2019-04-09 08:00:00 7.1 6 Sur 13 Sur 0 943.2 0 88
2019-04-09 07:00:00 7.1 4 Sur 10 Sudoeste 0 942.9 -0.2 88
2019-04-09 06:00:00 7.2 5 Sudoeste 15 Oeste 0 943.1 0 85
2019-04-09 05:00:00 7.1 8 Oeste 21 Sudoeste 0 943.2 0.4 85
2019-04-09 04:00:00 7.3 11 Sudoeste 21 Sudoeste 0 943.1 0.5 84
2019-04-09 03:00:00 7.8 7 Sudoeste 15 Sudoeste 0 943.1 0.7 83
2019-04-09 02:00:00 8.7 6 Sudoeste 22 Sudoeste 0 942.8 0.9 79
2019-04-09 01:00:00 9.7 8 Oeste 23 Oeste 0 942.6 1.3 73
2019-04-09 00:00:00 9.9 10 Oeste 28 Noroeste 0 942.4 1.5 63
2019-04-08 23:00:00 10.5 6 Oeste 16 Sudoeste 0 941.9 1.2 59
2019-04-08 22:00:00 11.7 8 Oeste 21 Sudoeste 0 941.3 1 55
2019-04-08 21:00:00 13.1 11 Noroeste 25 Oeste 0 940.9 0.6 54
2019-04-08 20:00:00 14.5 13 Oeste 33 Oeste 0 940.7 0 54
2019-04-08 19:00:00 15.7 14 Noroeste 31 Oeste 0 940.3 -1 54
2019-04-08 18:00:00 17 14 Oeste 34 Noroeste 0 940.3 -1.3 49
2019-04-08 17:00:00 16.6 14 Oeste 34 Noroeste 0 940.7 -1.4 56
2019-04-08 16:00:00 16.2 16 Oeste 35 Sudoeste 0 941.3 -1.1 58
2019-04-08 15:00:00 15.3 13 Oeste 28 Oeste 0 941.6 -1 66
2019-04-08 14:00:00 14.4 11 Oeste 33 Sudoeste 0 942.1 -0.2 69
2019-04-08 13:00:00 14.5 13 Sudoeste 29 Sudoeste 0 942.4 -0.1 74
2019-04-08 12:00:00 11.6 10 Oeste 29 Noroeste 1 942.6 0.5 91
2019-04-08 11:00:00 11.6 12 Sudoeste 28 Oeste 0 942.3 0.4 87
2019-04-08 10:00:00 10.8 11 Oeste 22 Sudoeste 0 942.5 0.9 87
2019-04-08 09:00:00 10 10 Sudoeste 22 Sudoeste 0.2 942.1 0.6 92
2019-04-08 08:00:00 10 9 Sudoeste 19 Sudoeste 0 941.9 0.3 93
2019-04-08 07:00:00 10 9 Sudoeste 20 Sudoeste 0 941.6 -0.1 94
2019-04-08 06:00:00 10.1 8 Sudoeste 24 Oeste 1 941.5 -0.6 95
2019-04-08 05:00:00 10.1 6 Sudoeste 17 Sudoeste 0.6 941.6 -0.7 95
2019-04-08 04:00:00 10.3 8 Sudoeste 17 Sur 0 941.7 -0.6 92
2019-04-08 03:00:00 10.2 5 Sur 18 Sudoeste 0 942.1 -0.1 93
2019-04-08 02:00:00 10.3 9 Sudoeste 23 Sudoeste 0 942.3 0 93
2019-04-08 01:00:00 10.4 9 Sudoeste 22 Sudoeste 0.2 942.3 0.3 94
2019-04-08 00:00:00 10.3 5 Sudoeste 13 Sudoeste 0.4 942.2 0.3 93
2019-04-07 23:00:00 10.5 6 Sur 12 Sur 0 942.3 0.4 87
2019-04-07 22:00:00 10.6 5 Sudoeste 18 Sudoeste 0 942 0.4 82
2019-04-07 21:00:00 10.9 7 Sudoeste 16 Sudoeste 0 941.9 0.4 78
2019-04-07 20:00:00 10.9 6 Sudoeste 24 Sudoeste 0 941.9 0.4 76
2019-04-07 19:00:00 11.1 9 Oeste 21 Oeste 0 941.6 0.1 73
2019-04-07 18:00:00 11.6 9 Oeste 33 Sudoeste 0 941.5 -0.1 65
2019-04-07 17:00:00 12.5 12 Oeste 33 Sudoeste 0 941.5 0 61
2019-04-07 16:00:00 12.8 14 Oeste 31 Sudoeste 0 941.5 0.2 57
2019-04-07 15:00:00 12.6 14 Oeste 31 Sudoeste 0 941.6 0.7 59
2019-04-07 14:00:00 12 15 Oeste 31 Sudoeste 0 941.5 1 63
2019-04-07 13:00:00 12.1 11 Oeste 32 Noroeste 0 941.3 1.6 59
2019-04-07 12:00:00 9.5 8 Oeste 27 Sudoeste 0 940.9 1.7 71
2019-04-07 11:00:00 8.2 10 Oeste 31 Oeste 0 940.5 2.4 80
2019-04-07 10:00:00 7.8 12 Oeste 24 Sudoeste 0 939.7 2.4 83
2019-04-07 09:00:00 6.8 9 Oeste 19 Oeste 0 939.2 2.5 89
2019-04-07 08:00:00 6.5 10 Oeste 28 Sudoeste 0 938.1 1.7 90
2019-04-07 07:00:00 6.5 8 Oeste 26 Oeste 0 937.3 1 91
2019-04-07 06:00:00 6.2 9 Oeste 22 Oeste 1 936.7 0.4 95
2019-04-07 05:00:00 6.1 10 Oeste 26 Oeste 0.8 936.4 0 94
2019-04-07 04:00:00 6.1 8 Oeste 26 Oeste 0.2 936.3 -0.4 90
2019-04-07 03:00:00 5.8 9 Sudoeste 23 Sudoeste 0 936.3 0.2 87
2019-04-07 02:00:00 6 12 Oeste 26 Sudoeste 0 936.4 0.2 85
2019-04-07 01:00:00 5.7 15 Sudoeste 29 Oeste 0 936.7 1.3 87
2019-04-07 00:00:00 5.8 14 Sudoeste 26 Oeste 0 936.1 1.2 84
2019-04-06 23:00:00 6.1 14 Sudoeste 34 Sudoeste 0 936.2 2 81
2019-04-06 22:00:00 6.6 15 Sudoeste 27 Sudoeste 0 935.4 1.7 74
2019-04-06 21:00:00 7.2 15 Sudoeste 32 Oeste 0 934.9 1.2 76
2019-04-06 20:00:00 7.9 13 Oeste 36 Oeste 0 934.2 0.8 72
2019-04-06 19:00:00 8.1 11 Oeste 36 Oeste 0 933.7 0.6 68
2019-04-06 18:00:00 8.1 15 Oeste 46 Oeste 0 933.7 0.3 69
2019-04-06 17:00:00 8.9 17 Noroeste 52 Oeste 0.6 933.4 -0.4 69
2019-04-06 16:00:00 10.9 16 Noroeste 42 Oeste 0 933.1 -1.1 63
2019-04-06 15:00:00 10.9 19 Oeste 45 Sudoeste 0 933.4 -0.3 56
2019-04-06 14:00:00 9.4 18 Oeste 51 Oeste 0.4 933.8 -0.1 69
2019-04-06 13:00:00 7.8 21 Oeste 60 Noroeste 4 934.2 0.5 78
2019-04-06 12:00:00 9.4 19 Sudoeste 41 Sudoeste 0 933.7 0.1 66
2019-04-06 11:00:00 7.5 17 Oeste 35 Sudoeste 0 933.9 0.8 79
2019-04-06 10:00:00 6 9 Oeste 23 Oeste 0.6 933.7 1 91
2019-04-06 09:00:00 5.9 14 Oeste 35 Oeste 0.2 933.6 1.5 88
2019-04-06 08:00:00 5.4 12 Sudoeste 26 Sudoeste 0 933.1 0.9 90
2019-04-06 07:00:00 5.5 14 Oeste 29 Oeste 0 932.7 0.5 85
2019-04-06 06:00:00 5.3 10 Oeste 26 Sudoeste 0 932.1 -0.5 87
2019-04-06 05:00:00 5.3 12 Oeste 34 Oeste 0 932.2 -0.2 87
2019-04-06 04:00:00 5.3 13 Sudoeste 26 Oeste 0 932.2 0 86
2019-04-06 03:00:00 5.1 5 Oeste 26 Oeste 0 932.6 0.6 86
2019-04-06 02:00:00 5.4 14 Oeste 31 Sudoeste 0.6 932.4 0.7 89
2019-04-06 01:00:00 5.8 10 Sudoeste 25 Sudoeste 0 932.2 1.2 86
2019-04-06 00:00:00 5.8 13 Oeste 29 Oeste 0 932 1.9 85
2019-04-05 23:00:00 5.4 10 Sudoeste 30 Sudoeste 0.6 931.7 2.1 85
2019-04-05 22:00:00 7.2 11 Oeste 30 Oeste 0 931 1.7 63
2019-04-05 21:00:00 7.7 8 Sudoeste 27 Oeste 0 930.1 1.6 59
2019-04-05 20:00:00 8.5 13 Oeste 35 Oeste 0 929.6 1.3 54
2019-04-05 19:00:00 9 13 Oeste 51 Oeste 0 929.3 0.9 58
2019-04-05 18:00:00 10.8 15 Oeste 44 Oeste 0 928.5 -0.6 45
2019-04-05 17:00:00 11 17 Oeste 44 Oeste 0 928.3 -0.9 48
2019-04-05 16:00:00 10.3 19 Oeste 37 Oeste 0 928.4 -0.6 58
2019-04-05 15:00:00 7.4 14 Oeste 32 Sudoeste 0.8 929.1 -0.1 81
2019-04-05 14:00:00 6.9 19 Oeste 37 Oeste 1 929.2 0.3 84
2019-04-05 13:00:00 7.5 12 Sudoeste 24 Sudoeste 0.4 929 0.2 87
2019-04-05 12:00:00 8 12 Sur 28 Sur 0 929.2 -0.1 80
2019-04-05 11:00:00 7.4 8 Sur 19 Sur 0 928.9 -0.6 85
2019-04-05 10:00:00 7 11 Sur 22 Sur 0.4 928.8 -0.6 86
2019-04-05 09:00:00 6.9 9 Sur 23 Sur 0.6 929.3 0.1 88
2019-04-05 08:00:00 7.2 10 Sudoeste 30 Sudoeste 0.2 929.5 -0.1 81
2019-04-05 07:00:00 8.6 11 Sudoeste 21 Oeste 0 929.4 -0.5 63
2019-04-05 06:00:00 8.6 6 Sur 19 Sudoeste 0 929.2 -1 61
2019-04-05 05:00:00 8.8 10 Sudoeste 21 Sudoeste 0 929.6 -0.5 56
2019-04-05 04:00:00 9.1 7 Sudoeste 22 Sudoeste 0 929.9 -0.1 47
2019-04-05 03:00:00 9.5 8 Sudoeste 21 Sudoeste 0 930.2 0 42
2019-04-05 02:00:00 10.1 7 Sudoeste 21 Oeste 0 930.1 -0.1 40
2019-04-05 01:00:00 10.2 9 Sudoeste 22 Oeste 0 930 0 38
2019-04-05 00:00:00 10.1 6 Sudoeste 13 Sudoeste 0 930.2 0.9 43
2019-04-04 23:00:00 11 7 Sudoeste 17 Sudoeste 0 930.2 0.9 39
2019-04-04 22:00:00 12.1 9 Oeste 17 Oeste 0 930 0.8 36
2019-04-04 21:00:00 13.7 6 Oeste 24 Noroeste 0 929.3 -0.4 33
2019-04-04 20:00:00 15.3 10 Oeste 26 Sudoeste 0 929.3 -1.2 29
2019-04-04 19:00:00 16.5 12 Sudoeste 24 Sudoeste 0 929.2 -2.2 28
2019-04-04 18:00:00 17.1 9 Oeste 25 Sudoeste 0 929.7 -2.6 26
2019-04-04 17:00:00 17.3 6 Oeste 21 Oeste 0 930.5 -2.4 24
2019-04-04 16:00:00 16.6 8 Sudoeste 20 Sur 0 931.4 -2.2 25
2019-04-04 15:00:00 14.8 5 Oeste 19 Sudeste 0 932.3 -1.6 27
2019-04-04 14:00:00 14.3 5 Sudoeste 18 Nordeste 0 932.9 -1 28
2019-04-04 13:00:00 13 9 Nordeste 20 Nordeste 0 933.6 -0.3 31
2019-04-04 12:00:00 11.8 9 Nordeste 23 Este 0 933.9 0.5 33
2019-04-04 11:00:00 9.8 12 Nordeste 24 Este 0 933.9 1 40
2019-04-04 10:00:00 7.2 6 Nordeste 15 Nordeste 0 933.9 1.6 47
2019-04-04 09:00:00 3.4 5 Nordeste 13 Nordeste 0 933.4 1.5 62
2019-04-04 08:00:00 2.7 5 Nordeste 12 Norte 0 932.9 1 62
2019-04-04 07:00:00 3.4 4 Nordeste 13 Nordeste 0 932.3 0.4 60
2019-04-04 06:00:00 4.1 8 Nordeste 17 Nordeste 0 931.9 -0.4 56
2019-04-04 05:00:00 5 4 Nordeste 10 Nordeste 0 931.9 -0.9 55
2019-04-04 04:00:00 6.3 5 Norte 11 Norte 0 931.9 -0.9 50
2019-04-04 03:00:00 7.6 5 Norte 13 Norte 0 932.3 -0.5 47
2019-04-04 02:00:00 8.5 8 Norte 15 Noroeste 0 932.8 0 48
2019-04-04 01:00:00 9.1 4 Noroeste 8 Oeste 0 932.8 0.5 47
2019-04-04 00:00:00 9.5 0 Calma 17 Noroeste 0 932.8 1 52
2019-04-03 23:00:00 11.5 10 Noroeste 23 Noroeste 0 932.8 1.2 41
2019-04-03 22:00:00 12.6 11 Noroeste 23 Oeste 0 932.3 0.6 46
2019-04-03 21:00:00 13.9 12 Noroeste 24 Oeste 0 931.8 0 44
2019-04-03 20:00:00 15.3 9 Oeste 33 Oeste 0 931.6 -0.6 43
2019-04-03 19:00:00 16.6 14 Oeste 44 Noroeste 0 931.7 -1.1 34
2019-04-03 18:00:00 17.9 20 Oeste 45 Noroeste 0 931.8 -1.8 33
2019-04-03 17:00:00 18.9 17 Oeste 48 Oeste 0 932.2 -2.1 26
2019-04-03 16:00:00 19 17 Oeste 40 Sudoeste 0 932.8 -2.3 22
2019-04-03 15:00:00 18.7 18 Oeste 42 Oeste 0 933.6 -2.2 23
2019-04-03 14:00:00 18.2 18 Oeste 34 Oeste 0 934.3 -2.2 29
2019-04-03 13:00:00 17.3 12 Oeste 35 Sudoeste 0 935.1 -1.9 36
2019-04-03 12:00:00 16.5 12 Oeste 26 Sudoeste 0 935.8 -1.7 45
2019-04-03 11:00:00 14.8 8 Sudoeste 19 Sudoeste 0 936.5 -1.2 55
2019-04-03 10:00:00 11.5 6 Sudoeste 15 Sudoeste 0 937 -1 72
2019-04-03 09:00:00 8.6 3 Oeste 11 Oeste 0 937.5 -0.8 82
2019-04-03 08:00:00 8 5 Sudoeste 11 Sudoeste 0 937.7 -1.2 83
2019-04-03 07:00:00 8.2 5 Sudoeste 11 Sudoeste 0 938 -1.6 81
2019-04-03 06:00:00 8.4 4 Sudoeste 10 Oeste 0 938.3 -1.9 79
2019-04-03 05:00:00 8.8 5 Oeste 9 Sudoeste 0 938.9 -1.9 76
2019-04-03 04:00:00 9.3 5 Sudoeste 12 Sudoeste 0 939.6 -1.7 74
2019-04-03 03:00:00 9.3 5 Sudoeste 11 Sudoeste 0 940.2 -1.4 73
2019-04-03 02:00:00 9.3 4 Sur 8 Sur 0 940.8 -0.9 77
2019-04-03 01:00:00 9.6 4 Sur 6 Sur 0 941.3 -0.4 81
2019-04-03 00:00:00 11.1 2 Sur 9 Sudoeste 0 941.6 0.2 74
2019-04-02 23:00:00 12.5 3 Oeste 10 Noroeste 0 941.7 0.7 67
2019-04-02 22:00:00 13.9 3 Oeste 15 Noroeste 0 941.7 0.8 61
2019-04-02 21:00:00 15.1 10 Noroeste 19 Noroeste 0 941.4 0.1 58
2019-04-02 20:00:00 16.5 10 Oeste 24 Sudoeste 0 941 -1.1 51
2019-04-02 19:00:00 15.9 4 Oeste 11 Noroeste 0.4 940.9 -1.2 63
2019-04-02 18:00:00 15.9 6 Noroeste 20 Nordeste 0 941.3 -1.5 64
2019-04-02 17:00:00 14.6 8 Nordeste 29 Noroeste 4.8 942.1 -1.3 77
2019-04-02 16:00:00 19.6 7 Oeste 17 Sudoeste 0 942.1 -2.2 44
2019-04-02 15:00:00 17.7 8 Sudoeste 19 Oeste 0 942.8 -2 51
2019-04-02 14:00:00 17.1 6 Oeste 16 Sudoeste 0 943.4 -1.1 59
2019-04-02 13:00:00 16.1 8 Oeste 17 Oeste 0 944.3 0 62
2019-04-02 12:00:00 14.1 6 Oeste 15 Sudoeste 0 944.8 0.8 71
2019-04-02 11:00:00 11.8 6 Oeste 17 Oeste 0 944.5 0.9 83
2019-04-02 10:00:00 10 6 Oeste 15 Oeste 0 944.3 1.1 91
2019-04-02 09:00:00 9.2 6 Sudoeste 14 Oeste 0 944 1.1 96
2019-04-02 08:00:00 7.5 3 Sudoeste 8 Sudoeste 0 943.6 0.1 95
2019-04-02 07:00:00 8.4 5 Oeste 9 Sudoeste 0 943.2 -0.6 95
2019-04-02 06:00:00 8.7 2 Este 8 Noroeste 0 942.9 -0.8 93
2019-04-02 05:00:00 9.2 4 Noroeste 9 Sudoeste 0 943.5 -0.3 91
2019-04-02 04:00:00 9.4 3 Oeste 7 Sudoeste 0 943.8 -0.1 92
2019-04-02 03:00:00 9.6 5 Sur 10 Sur 0 943.7 -0.3 92
2019-04-02 02:00:00 10.2 4 Sur 10 Sur 0 943.8 0.1 92
2019-04-02 01:00:00 10.5 0 Calma 6 Sudeste 0 943.9 1 91
2019-04-02 00:00:00 10.6 3 Sudeste 6 Nordeste 0 944 1.7 91
2019-04-01 23:00:00 10.8 5 Noroeste 12 Oeste 0 943.7 2.1 89
2019-04-01 22:00:00 11.2 3 Noroeste 9 Norte 0 942.9 2.6 88
2019-04-01 21:00:00 11.6 3 Norte 28 Sudoeste 2.8 942.3 1.9 89
2019-04-01 20:00:00 13.1 15 Sur 32 Sudoeste 0.6 941.6 0.9 78
2019-04-01 19:00:00 17.4 6 Oeste 17 Noroeste 0 940.3 -1.1 48
2019-04-01 18:00:00 18 3 Este 15 Oeste 0 940.4 -1.4 50
2019-04-01 17:00:00 17 5 Oeste 16 Oeste 0 940.7 -1.6 56
2019-04-01 16:00:00 14.6 5 Sudoeste 12 Sudoeste 0 941.4 -1.3 75
2019-04-01 15:00:00 12.7 7 Sudoeste 13 Sudoeste 0.2 941.8 -0.5 79
2019-04-01 14:00:00 11.1 6 Sudoeste 14 Sudoeste 3.8 942.3 0.6 90
2019-04-01 13:00:00 11.9 7 Sudoeste 17 Sudoeste 0.4 942.7 1.5 85
2019-04-01 12:00:00 13.3 7 Sudeste 11 Sudeste 0 942.3 1.4 69
2019-04-01 11:00:00 12.1 3 Sudeste 7 Sur 0 941.7 -- 77
2019-04-01 10:00:00 10.2 3 Sudeste 8 Sudeste 0 941.2 -- 86
2019-04-01 09:00:00 9.5 4 Sur 7 Sur 0 940.9 -- 91
2019-04-01 08:00:00 9 3 Este 5 Sudeste 0 -- -- 92
2019-04-01 07:00:00 8.9 2 Este 8 Nordeste 0 -- -- 92
2019-04-01 06:00:00 9.2 4 Norte 8 Nordeste 0 -- -- 91
2019-04-01 05:00:00 9.7 0 Calma 5 Nordeste 0 -- -- 89
2019-04-01 04:00:00 9.8 2 Nordeste 9 Nordeste 0 -- -- 89
2019-04-01 03:00:00 9.9 3 Este 10 Nordeste 0 -- -- 89
2019-04-01 02:00:00 10 5 Nordeste 11 Nordeste 0 -- -- 89
2019-04-01 01:00:00 10.1 6 Nordeste 14 Nordeste 0 -- -- 88
2019-04-01 00:00:00 10.2 3 Norte 11 Nordeste 0 -- -- 88
2019-03-31 23:00:00 10.2 4 Nordeste 12 Nordeste 0 -- -- 85
2019-03-31 22:00:00 10.1 4 Nordeste 15 Este 0 -- -- 85
2019-03-31 21:00:00 10.9 7 Nordeste 22 Nordeste 0 -- -- 81
2019-03-31 20:00:00 12.1 11 Nordeste 25 Nordeste 0 -- -- 75
2019-03-31 19:00:00 13 13 Nordeste 24 Nordeste 0 -- -- 70
2019-03-31 18:00:00 13.2 11 Este 21 Este 0 -- -- 66
2019-03-31 17:00:00 13.7 13 Nordeste 23 Nordeste 0 -- -- 64
2019-03-31 16:00:00 12.4 13 Nordeste 24 Norte 0 -- -- 76
2019-03-31 15:00:00 10.5 12 Nordeste 25 Nordeste 0 -- -- 83
2019-03-31 14:00:00 9.6 13 Nordeste 26 Nordeste 0 -- -- 85
2019-03-31 13:00:00 9.4 9 Nordeste 22 Nordeste 0 -- -- 86
2019-03-31 12:00:00 9.5 10 Nordeste 26 Nordeste 0 -- -- 81
2019-03-31 11:00:00 9.6 11 Nordeste 23 Nordeste 0 -- -- 79
2019-03-31 10:00:00 8.6 8 Nordeste 19 Nordeste 0 -- -- 83
2019-03-31 09:00:00 -- -- -- -- -- -- -- -- --
2019-03-31 08:00:00 -- -- -- -- -- -- -- -- --
2019-03-31 07:00:00 -- -- -- -- -- -- -- -- --
2019-03-31 06:00:00 -- -- -- -- -- -- -- -- --
2019-03-31 05:00:00 -- -- -- -- -- -- -- -- --
2019-03-31 03:00:00 -- -- -- -- -- -- -- -- --
2019-03-31 01:00:00 -- -- -- -- -- -- -- -- --
2019-03-31 00:00:00 -- -- -- -- -- -- -- -- --
2019-03-30 23:00:00 -- -- -- -- -- -- -- -- --
2019-03-30 22:00:00 -- -- -- -- -- -- -- -- --
2019-03-30 21:00:00 -- -- -- -- -- -- -- -- --
2019-03-30 20:00:00 -- -- -- -- -- -- -- -- --
2019-03-30 19:00:00 -- -- -- -- -- -- -- -- --
2019-03-30 18:00:00 -- -- -- -- -- -- -- -- --
2019-03-30 17:00:00 -- -- -- -- -- -- -- -- --
2019-03-30 16:00:00 -- -- -- -- -- -- -- -- --
2019-03-30 15:00:00 -- -- -- -- -- -- -- -- --
2019-03-30 14:00:00 -- -- -- -- -- -- -- -- --
2019-03-30 13:00:00 -- -- -- -- -- -- -- -- --
2019-03-30 12:00:00 15.9 15 Este 28 Este 0 -- -- 42
2019-03-30 11:00:00 13.7 10 Nordeste 21 Nordeste 0 947.2 0.2 48
2019-03-30 10:00:00 10.4 11 Nordeste 18 Nordeste 0 947.5 0.4 58
2019-03-30 09:00:00 8.6 9 Este 21 Este 0 947.4 0.3 64
2019-03-30 08:00:00 6.1 10 Nordeste 18 Este 0 947 -0.4 73
2019-03-30 07:00:00 6 8 Nordeste 16 Nordeste 0 947.1 -- 71
2019-03-30 06:00:00 6.2 6 Nordeste 15 Este 0 947.1 -- 68
2019-03-30 05:00:00 6.2 8 Este 14 Nordeste 0 947.4 -- 67
2019-03-30 04:00:00 6.5 6 Este 14 Este 0 -- -- 68
2019-03-30 03:00:00 7.5 9 Nordeste 19 Nordeste 0 -- -- 64
2019-03-30 02:00:00 8.5 8 Nordeste 19 Este 0 -- -- 60
2019-03-30 01:00:00 8.9 10 Nordeste 20 Nordeste 0 -- -- 58
2019-03-30 00:00:00 8.9 10 Nordeste 19 Nordeste 0 -- -- 57
2019-03-29 23:00:00 9.6 8 Nordeste 13 Nordeste 0 948.1 0.9 51
2019-03-29 22:00:00 11.3 5 Nordeste 14 Nordeste 0 948 1 34
2019-03-29 21:00:00 13 4 Norte 8 Norte 0 947.5 0.5 26
2019-03-29 20:00:00 15.4 4 Norte 13 Noroeste 0 947.2 -0.1 23
2019-03-29 19:00:00 17 5 Noroeste 14 Norte 0 947 -0.6 19
2019-03-29 18:00:00 18.4 4 Norte 14 Norte 0 947 -1.2 17
2019-03-29 17:00:00 19.3 5 Oeste 16 Nordeste 0 947.3 -1.6 16
2019-03-29 16:00:00 19.5 4 Sur 23 Nordeste 0 947.6 -2.1 15
2019-03-29 15:00:00 19.3 10 Este 21 Este 0 948.2 -2.1 17
2019-03-29 14:00:00 17.9 7 Este 23 Este 0 948.9 -2.1 18
2019-03-29 13:00:00 17.1 10 Sudeste 22 Sudeste 0 949.7 -1.6 20
2019-03-29 12:00:00 15.4 8 Este 19 Nordeste 0 950.3 -1.1 25
2019-03-29 11:00:00 12.3 10 Este 19 Nordeste 0 951 -0.2 35
2019-03-29 10:00:00 9.1 10 Este 20 Este 0 951.3 0.5 45
2019-03-29 09:00:00 5.7 10 Este 21 Este 0 951.4 1.1 59
2019-03-29 08:00:00 2.5 8 Este 16 Nordeste 0 951.2 1 73
2019-03-29 07:00:00 2.5 7 Este 18 Este 0 950.8 0.4 66
2019-03-29 06:00:00 3 9 Este 21 Nordeste 0 950.3 -0.3 61
2019-03-29 05:00:00 3.5 9 Nordeste 17 Este 0 950.2 -0.5 56
2019-03-29 04:00:00 4.4 7 Este 19 Nordeste 0 950.4 -0.4 46
2019-03-29 03:00:00 5.6 11 Nordeste 21 Nordeste 0 950.6 -0.1 41
2019-03-29 02:00:00 6.4 4 Nordeste 9 Nordeste 0 950.7 -0.1 38
2019-03-29 01:00:00 7.9 5 Norte 20 Nordeste 0 950.8 0.1 34
2019-03-29 00:00:00 9.8 4 Este 16 Sudeste 0 950.7 0.5 29
2019-03-28 23:00:00 10.7 10 Este 16 Sudeste 0 950.8 1.3 28
2019-03-28 22:00:00 12.1 9 Sudeste 24 Este 0 950.7 1.5 27
2019-03-28 21:00:00 13.7 11 Este 22 Este 0 950.2 1.3 25
2019-03-28 20:00:00 15.2 11 Nordeste 32 Nordeste 0 949.5 0.7 23
2019-03-28 19:00:00 17.2 16 Nordeste 42 Nordeste 0 949.2 -0.1 21
2019-03-28 18:00:00 19.1 20 Nordeste 35 Este 0 948.9 -1.1 17
2019-03-28 17:00:00 20.4 17 Este 32 Nordeste 0 948.8 -2.1 16
2019-03-28 16:00:00 20.9 17 Este 35 Este 0 949.3 -2.4 15
2019-03-28 15:00:00 20.8 18 Este 36 Nordeste 0 950 -2.5 15
2019-03-28 14:00:00 19.6 14 Nordeste 33 Este 0 950.9 -2 15
2019-03-28 13:00:00 17.8 11 Este 26 Nordeste 0 951.7 -1.3 17
2019-03-28 12:00:00 15.7 14 Este 28 Nordeste 0 952.5 -0.6 20
2019-03-28 11:00:00 12.9 14 Este 24 Nordeste 0 952.9 0 25
2019-03-28 10:00:00 9.5 11 Este 23 Este 0 953 0.3 36
2019-03-28 09:00:00 6 9 Este 18 Este 0 953.1 1 45
2019-03-28 08:00:00 1.6 8 Este 14 Nordeste 0 952.9 1.1 63
2019-03-28 07:00:00 2 6 Este 11 Este 0 952.7 0.9 64
2019-03-28 06:00:00 2.5 5 Nordeste 14 Este 0 952.1 0.4 62
2019-03-28 05:00:00 2.8 6 Nordeste 13 Este 0 951.8 0 59
2019-03-28 04:00:00 3.9 5 Nordeste 13 Nordeste 0 951.8 0.3 51
2019-03-28 03:00:00 4.7 4 Nordeste 10 Nordeste 0 951.7 0.6 46
2019-03-28 02:00:00 5.7 3 Norte 9 Nordeste 0 951.8 1.2 43
2019-03-28 01:00:00 6.9 4 Este 6 Este 0 951.5 1.3 40
2019-03-28 00:00:00 8.1 4 Este 7 Este 0 951.1 1.5 37
2019-03-27 23:00:00 9.3 4 Nordeste 9 Nordeste 0 950.6 1.5 33
2019-03-27 22:00:00 10.9 4 Nordeste 11 Norte 0 950.2 1.5 28
2019-03-27 21:00:00 12.3 8 Nordeste 14 Este 0 949.6 1.2 25
2019-03-27 20:00:00 14.1 10 Nordeste 28 Este 0 949.1 0.9 21
2019-03-27 19:00:00 16 15 Nordeste 37 Este 0 948.7 0.3 17
2019-03-27 18:00:00 17.1 19 Nordeste 44 Nordeste 0 948.4 -0.2 17
2019-03-27 17:00:00 18.3 18 Este 41 Nordeste 0 948.2 -1.1 17
2019-03-27 16:00:00 18.7 19 Este 42 Nordeste 0 948.4 -1.5 14
2019-03-27 15:00:00 18.7 17 Nordeste 41 Nordeste 0 948.6 -1.7 15
2019-03-27 14:00:00 17.8 19 Este 41 Nordeste 0 949.3 -1.1 19
2019-03-27 13:00:00 16.5 14 Nordeste 35 Este 0 949.9 -0.1 23
2019-03-27 12:00:00 14.9 15 Este 38 Nordeste 0 950.3 0.6 25
2019-03-27 11:00:00 12.2 16 Este 32 Nordeste 0 950.4 1 41
2019-03-27 10:00:00 9.8 18 Nordeste 36 Nordeste 0 950 1.5 45
2019-03-27 09:00:00 7.3 16 Nordeste 32 Nordeste 0 949.7 1.8 55
2019-03-27 08:00:00 4.2 12 Nordeste 28 Este 0 949.4 2 71
2019-03-27 07:00:00 4.2 16 Este 32 Este 0 948.5 1.1 71
2019-03-27 06:00:00 4.4 8 Nordeste 27 Este 0 947.9 0.2 76
2019-03-27 05:00:00 4.9 13 Nordeste 29 Nordeste 0 947.4 -0.2 78
2019-03-27 04:00:00 5.5 13 Nordeste 27 Nordeste 0 947.4 0.2 78
2019-03-27 03:00:00 6 13 Nordeste 31 Nordeste 0 947.7 1 74
2019-03-27 02:00:00 7.3 16 Nordeste 31 Nordeste 0 947.6 1.4 73
2019-03-27 01:00:00 8.6 17 Nordeste 28 Nordeste 0 947.2 1.8 61
2019-03-27 00:00:00 9.7 12 Nordeste 23 Nordeste 0 946.7 1.9 57
2019-03-26 23:00:00 10.7 9 Nordeste 19 Nordeste 0 946.2 2.4 54
2019-03-26 22:00:00 13.1 10 Nordeste 30 Este 0 945.4 2.3 45
2019-03-26 21:00:00 15 19 Este 34 Este 0 944.8 2.4 37
2019-03-26 20:00:00 16.5 20 Este 38 Nordeste 0 943.8 2 34
2019-03-26 19:00:00 18.5 22 Este 49 Este 0 943.1 1.1 32
2019-03-26 18:00:00 20.3 28 Este 52 Este 0 942.4 0.1 27
2019-03-26 17:00:00 21.8 27 Este 57 Este 0 941.8 -1 26
2019-03-26 16:00:00 22.5 23 Este 45 Este 0 942 -1.2 22
2019-03-26 15:00:00 22.2 25 Este 51 Este 0 942.3 -1.5 22
2019-03-26 14:00:00 22.3 25 Este 51 Este 0 942.8 -1.5 19
2019-03-26 13:00:00 21.5 24 Este 46 Nordeste 0 943.2 -1.3 18
2019-03-26 12:00:00 18.4 23 Nordeste 49 Nordeste 0 943.8 -0.6 28
2019-03-26 11:00:00 14.6 21 Nordeste 45 Este 0 944.3 0.1 35
2019-03-26 10:00:00 12.2 23 Este 45 Este 0 944.5 0.8 38
2019-03-26 09:00:00 10 18 Nordeste 33 Nordeste 0 944.4 0.8 44
2019-03-26 08:00:00 6.9 11 Este 19 Nordeste 0 944.2 0.6 52
2019-03-26 07:00:00 5.8 5 Nordeste 14 Norte 0 943.7 0.1 54
2019-03-26 06:00:00 6.3 6 Nordeste 15 Nordeste 0 943.6 -0.2 50
2019-03-26 05:00:00 7.1 4 Este 15 Norte 0 943.6 -0.6 46
2019-03-26 04:00:00 7.8 7 Nordeste 15 Nordeste 0 943.6 -0.5 41
2019-03-26 03:00:00 8.1 5 Nordeste 12 Nordeste 0 943.8 -0.5 38
2019-03-26 02:00:00 8.8 5 Nordeste 10 Nordeste 0 944.2 -0.1 36
2019-03-26 01:00:00 10 7 Este 13 Este 0 944.1 0.1 34
2019-03-26 00:00:00 10.8 5 Nordeste 12 Nordeste 0 944.3 0.7 34
2019-03-25 23:00:00 11.9 5 Norte 13 Norte 0 944.3 0.9 31
2019-03-25 22:00:00 13.8 5 Norte 16 Este 0 944 0.6 27
2019-03-25 21:00:00 15.8 9 Este 16 Este 0 943.6 0.3 23
2019-03-25 20:00:00 17.6 8 Este 21 Este 0 943.4 -0.2 21
2019-03-25 19:00:00 19.7 13 Este 28 Nordeste 0 943.4 -0.9 17
2019-03-25 18:00:00 20.9 16 Nordeste 32 Nordeste 0 943.3 -1.7 15
2019-03-25 17:00:00 22.1 15 Nordeste 32 Este 0 943.6 -2.6 14
2019-03-25 16:00:00 22.2 15 Este 33 Este 0 944.3 -2.8 15
2019-03-25 15:00:00 22.2 14 Nordeste 37 Este 0 945 -2.9 17
2019-03-25 14:00:00 21 21 Este 38 Nordeste 0 946.2 -2.3 19
2019-03-25 13:00:00 19.9 15 Este 33 Nordeste 0 947.1 -1.6 22
2019-03-25 12:00:00 18.3 16 Este 30 Nordeste 0 947.9 -0.6 28
2019-03-25 11:00:00 15.5 13 Este 27 Este 0 948.5 0 31
2019-03-25 10:00:00 11.9 11 Nordeste 17 Nordeste 0 948.7 0.5 42
2019-03-25 09:00:00 7.8 8 Este 16 Este 0 948.5 0.5 52
2019-03-25 08:00:00 4 5 Este 11 Este 0 948.5 0.6 66
2019-03-25 07:00:00 4.3 4 Este 11 Este 0 948.2 0.1 68
2019-03-25 06:00:00 4.7 4 Este 8 Este 0 948 -0.4 65
2019-03-25 05:00:00 5.7 5 Nordeste 13 Nordeste 0 947.9 -0.7 63
2019-03-25 04:00:00 6.4 8 Este 13 Nordeste 0 948.1 -0.4 65
2019-03-25 03:00:00 7.1 5 Nordeste 12 Norte 0 948.4 -0.3 63
2019-03-25 02:00:00 8.2 4 Norte 11 Nordeste 0 948.6 0 59
2019-03-25 01:00:00 9.1 5 Nordeste 12 Nordeste 0 948.5 -0.1 56
2019-03-25 00:00:00 11 4 Norte 9 Nordeste 0 948.7 0.7 49